createdAt,value
2022-10-19T00:02:06.489Z,74.90
2022-10-19T00:04:33.065Z,77.29
2022-10-19T00:07:00.885Z,75.11
2022-10-19T00:09:27.298Z,75.58
2022-10-19T00:11:54.243Z,75.45
2022-10-19T00:14:22.617Z,75.41
2022-10-19T00:16:50.862Z,75.60
2022-10-19T00:19:19.921Z,75.25
2022-10-19T00:21:46.908Z,75.79
2022-10-19T00:24:13.624Z,75.42
2022-10-19T00:26:40.041Z,76.40
2022-10-19T00:29:06.761Z,75.29
2022-10-19T00:31:33.856Z,75.68
2022-10-19T00:34:00.373Z,74.96
2022-10-19T00:36:32.433Z,75.87
2022-10-19T00:38:59.185Z,75.87
2022-10-19T00:41:33.543Z,75.22
2022-10-19T00:44:08.087Z,75.49
2022-10-19T00:46:36.829Z,75.63
2022-10-19T00:49:09.846Z,75.84
2022-10-19T00:51:39.231Z,76.46
2022-10-19T00:54:09.259Z,76.60
2022-10-19T00:56:38.001Z,76.55
2022-10-19T00:59:04.972Z,76.37
2022-10-19T01:01:32.302Z,76.45
2022-10-19T01:03:59.082Z,76.58
2022-10-19T01:06:26.416Z,75.91
2022-10-19T01:08:54.069Z,76.00
2022-10-19T01:11:26.429Z,75.57
2022-10-19T01:14:09.753Z,76.35
2022-10-19T01:16:40.855Z,75.93
2022-10-19T01:19:08.069Z,76.07
2022-10-19T01:21:38.426Z,75.92
2022-10-19T01:24:17.885Z,76.17
2022-10-19T01:26:59.986Z,76.21
2022-10-19T01:29:45.596Z,75.99
2022-10-19T01:32:16.660Z,76.20
2022-10-19T01:34:48.922Z,76.59
2022-10-19T01:37:27.778Z,76.41
2022-10-19T01:40:15.328Z,76.70
2022-10-19T01:42:51.579Z,76.63
2022-10-19T01:45:47.125Z,76.42
2022-10-19T01:48:23.181Z,76.73
2022-10-19T01:50:52.258Z,76.20
2022-10-19T01:53:19.719Z,76.36
2022-10-19T01:55:49.220Z,76.53
2022-10-19T01:58:17.534Z,76.39
2022-10-19T02:00:45.772Z,76.44
2022-10-19T02:03:12.988Z,76.19
2022-10-19T02:05:40.490Z,75.67
2022-10-19T02:08:10.925Z,76.23
2022-10-19T02:10:44.377Z,76.32
2022-10-19T02:13:24.995Z,76.09
2022-10-19T02:15:53.365Z,75.92
2022-10-19T02:18:22.505Z,76.23
2022-10-19T02:20:48.961Z,76.50
2022-10-19T02:23:17.229Z,76.64
2022-10-19T02:25:43.594Z,76.53
2022-10-19T02:28:09.924Z,76.73
2022-10-19T02:30:36.244Z,76.51
2022-10-19T02:33:02.684Z,76.53
2022-10-19T02:35:29.170Z,76.47
2022-10-19T02:37:59.589Z,76.42
2022-10-19T02:40:26.767Z,76.37
2022-10-19T02:42:56.943Z,76.37
2022-10-19T02:45:29.252Z,76.64
2022-10-19T02:47:58.254Z,76.47
2022-10-19T02:50:25.866Z,76.53
2022-10-19T02:52:52.173Z,76.82
2022-10-19T02:55:18.547Z,76.90
2022-10-19T02:57:45.261Z,76.78
2022-10-19T03:00:14.162Z,76.46
2022-10-19T03:02:40.505Z,76.66
2022-10-19T03:05:07.025Z,76.66
2022-10-19T03:07:33.605Z,76.19
2022-10-19T03:10:00.163Z,76.63
2022-10-19T03:12:26.520Z,76.62
2022-10-19T03:14:52.871Z,76.98
2022-10-19T03:17:20.772Z,76.59
2022-10-19T03:19:47.126Z,76.84
2022-10-19T03:22:17.368Z,76.54
2022-10-19T03:24:43.700Z,75.89
2022-10-19T03:27:10.239Z,76.58
2022-10-19T03:29:36.548Z,76.13
2022-10-19T03:32:03.011Z,76.61
2022-10-19T03:34:29.408Z,77.10
2022-10-19T03:36:56.699Z,77.71
2022-10-19T03:39:23.275Z,76.56
2022-10-19T03:41:50.291Z,76.83
2022-10-19T03:44:16.941Z,76.08
2022-10-19T03:46:44.770Z,76.98
2022-10-19T03:49:12.797Z,76.80
2022-10-19T03:51:39.143Z,77.45
2022-10-19T03:54:06.692Z,77.01
2022-10-19T03:56:34.467Z,77.27
2022-10-19T03:59:01.693Z,77.41
2022-10-19T04:01:32.893Z,77.37
2022-10-19T04:04:04.396Z,76.77
2022-10-19T04:06:32.364Z,76.62
2022-10-19T04:08:59.379Z,76.69
2022-10-19T04:11:27.402Z,77.22
2022-10-19T04:13:54.461Z,76.51
2022-10-19T04:16:21.899Z,76.54
2022-10-19T04:18:48.406Z,77.36
2022-10-19T04:21:25.277Z,77.26
2022-10-19T04:23:52.500Z,76.96
2022-10-19T04:26:20.767Z,77.07
2022-10-19T04:28:47.261Z,77.51
2022-10-19T04:31:13.637Z,77.33
2022-10-19T04:33:40.410Z,77.48
2022-10-19T04:36:08.892Z,77.73
2022-10-19T04:38:35.231Z,77.82
2022-10-19T04:41:05.953Z,77.22
2022-10-19T04:43:32.939Z,76.89
2022-10-19T04:46:06.161Z,76.68
2022-10-19T04:48:33.767Z,77.21
2022-10-19T04:51:00.326Z,77.42
2022-10-19T04:53:27.650Z,77.48
2022-10-19T04:55:56.346Z,77.44
2022-10-19T04:58:22.698Z,77.90
2022-10-19T05:00:49.132Z,77.75
2022-10-19T05:03:15.455Z,77.57
2022-10-19T05:05:41.769Z,77.77
2022-10-19T05:08:09.169Z,77.69
2022-10-19T05:10:37.398Z,77.83
2022-10-19T05:13:04.644Z,77.82
2022-10-19T05:15:31.121Z,77.77
2022-10-19T05:17:57.790Z,77.70
2022-10-19T05:20:24.292Z,77.61
2022-10-19T05:22:51.074Z,77.19
2022-10-19T05:25:17.529Z,77.66
2022-10-19T05:27:43.932Z,77.28
2022-10-19T05:30:10.417Z,77.60
2022-10-19T05:32:36.916Z,77.39
2022-10-19T05:35:03.572Z,77.68
2022-10-19T05:37:29.848Z,77.92
2022-10-19T05:39:56.269Z,78.04
2022-10-19T05:42:22.609Z,77.65
2022-10-19T05:44:48.930Z,77.47
2022-10-19T05:47:15.242Z,77.49
2022-10-19T05:49:41.548Z,77.80
2022-10-19T05:52:07.877Z,77.92
2022-10-19T05:54:35.909Z,77.99
2022-10-19T05:57:02.594Z,77.66
2022-10-19T05:59:28.904Z,78.00
2022-10-19T06:01:55.403Z,78.17
2022-10-19T06:04:21.848Z,78.50
2022-10-19T06:06:48.260Z,79.30
2022-10-19T06:09:14.720Z,79.01
2022-10-19T06:11:42.438Z,78.96
2022-10-19T06:14:13.334Z,79.10
2022-10-19T06:16:39.925Z,79.16
2022-10-19T06:19:06.470Z,79.03
2022-10-19T06:24:20.789Z,78.94
2022-10-19T06:26:47.189Z,78.74
2022-10-19T06:29:13.601Z,77.75
2022-10-19T06:31:40.101Z,78.35
2022-10-19T06:34:06.867Z,78.93
2022-10-19T06:36:33.305Z,79.15
2022-10-19T06:39:01.611Z,78.56
2022-10-19T06:41:28.861Z,78.42
2022-10-19T06:43:55.716Z,78.24
2022-10-19T06:46:23.605Z,78.82
2022-10-19T06:48:57.541Z,78.70
2022-10-19T06:51:25.516Z,78.93
2022-10-19T06:53:56.631Z,79.13
2022-10-19T06:56:26.907Z,79.23
2022-10-19T06:58:53.999Z,79.00
2022-10-19T07:01:20.790Z,79.50
2022-10-19T07:03:47.273Z,79.89
2022-10-19T07:06:13.634Z,79.08
2022-10-19T07:08:40.973Z,79.05
2022-10-19T07:11:08.942Z,78.80
2022-10-19T07:13:35.760Z,80.17
2022-10-19T07:16:14.587Z,79.56
2022-10-19T07:18:44.228Z,79.66
2022-10-19T07:21:12.271Z,79.77
2022-10-19T07:23:39.905Z,79.54
2022-10-19T07:26:07.182Z,78.64
2022-10-19T07:28:35.191Z,79.61
2022-10-19T07:31:08.354Z,79.33
2022-10-19T07:33:35.034Z,78.81
2022-10-19T07:36:02.082Z,79.85
2022-10-19T07:38:29.922Z,79.09
2022-10-19T07:41:00.057Z,77.91
2022-10-19T07:43:26.389Z,78.05
2022-10-19T07:45:58.543Z,77.51
2022-10-19T07:48:24.934Z,78.13
2022-10-19T07:50:51.237Z,78.21
2022-10-19T07:53:17.555Z,78.09
2022-10-19T07:55:43.875Z,77.59
2022-10-19T07:58:10.190Z,77.83
2022-10-19T08:00:36.597Z,77.56
2022-10-19T08:05:49.424Z,76.69
2022-10-19T08:08:15.731Z,75.69
2022-10-19T08:10:42.221Z,75.46
2022-10-19T08:13:08.497Z,74.79
2022-10-19T08:15:34.892Z,74.72
2022-10-19T08:18:01.239Z,74.65
2022-10-19T08:20:27.601Z,74.08
2022-10-19T08:22:57.942Z,73.67
2022-10-19T08:25:25.433Z,74.18
2022-10-19T08:27:52.491Z,73.10
2022-10-19T08:30:19.019Z,72.35
2022-10-19T08:32:45.379Z,72.63
2022-10-19T08:35:11.651Z,72.59
2022-10-19T08:37:45.018Z,72.53
2022-10-19T08:40:20.634Z,72.74
2022-10-19T08:42:57.501Z,70.96
2022-10-19T08:45:38.879Z,71.47
2022-10-19T08:48:05.240Z,69.64
2022-10-19T08:50:43.523Z,70.14
2022-10-19T08:53:15.512Z,68.80
2022-10-19T08:55:48.048Z,69.27
2022-10-19T08:58:20.625Z,69.29
2022-10-19T09:00:54.697Z,67.41
2022-10-19T09:03:43.878Z,67.89
2022-10-19T09:06:21.988Z,66.75
2022-10-19T09:08:50.489Z,67.03
2022-10-19T09:11:20.393Z,67.05
2022-10-19T09:14:04.333Z,65.56
2022-10-19T09:16:31.358Z,65.04
2022-10-19T09:18:57.687Z,64.64
2022-10-19T09:21:47.272Z,63.95
2022-10-19T09:24:34.215Z,62.78
2022-10-19T09:27:01.075Z,62.81
2022-10-19T09:29:36.991Z,63.56
2022-10-19T09:32:04.902Z,62.39
2022-10-19T09:34:34.605Z,61.60
2022-10-19T09:37:00.998Z,59.29
2022-10-19T09:39:29.575Z,58.59
2022-10-19T09:41:57.454Z,59.82
2022-10-19T09:44:24.065Z,57.92
2022-10-19T09:47:17.922Z,59.25
2022-10-19T09:49:48.342Z,58.94
2022-10-19T09:52:41.057Z,57.02
2022-10-19T09:55:27.720Z,57.74
2022-10-19T09:58:01.971Z,57.60
2022-10-19T10:00:36.260Z,56.33
2022-10-19T10:03:02.717Z,55.94
2022-10-19T10:05:33.825Z,55.00
2022-10-19T10:08:00.466Z,53.91
2022-10-19T10:10:46.394Z,55.75
2022-10-19T10:13:17.867Z,54.70
2022-10-19T10:15:47.015Z,54.46
2022-10-19T10:18:15.009Z,54.66
2022-10-19T10:23:30.961Z,54.67
2022-10-19T10:25:58.406Z,54.59
2022-10-19T10:28:26.335Z,54.89
2022-10-19T10:31:10.801Z,54.56
2022-10-19T10:33:44.905Z,55.18
2022-10-19T10:36:12.436Z,55.05
2022-10-19T10:38:45.066Z,53.57
2022-10-19T10:41:14.218Z,53.82
2022-10-19T10:46:24.658Z,53.50
2022-10-19T10:48:58.529Z,53.38
2022-10-19T10:51:36.768Z,52.36
2022-10-19T10:54:22.966Z,51.59
2022-10-19T10:57:09.324Z,52.55
2022-10-19T10:59:43.050Z,51.64
2022-10-19T11:04:56.168Z,50.23
2022-10-19T11:07:26.804Z,47.97
2022-10-19T11:09:54.528Z,48.63
2022-10-19T11:12:31.551Z,46.95
2022-10-19T11:15:13.607Z,48.07
2022-10-19T11:17:42.892Z,47.18
2022-10-19T11:20:14.770Z,47.11
2022-10-19T11:22:47.134Z,46.53
2022-10-19T11:25:26.445Z,47.37
2022-10-19T11:27:52.758Z,47.55
2022-10-19T11:30:24.128Z,47.79
2022-10-19T11:32:59.810Z,46.73
2022-10-19T11:35:32.185Z,46.62
2022-10-19T11:38:20.387Z,46.46
2022-10-19T11:41:12.890Z,46.00
2022-10-19T11:43:38.249Z,44.23
2022-10-19T11:46:19.550Z,44.94
2022-10-19T11:48:54.960Z,45.07
2022-10-19T11:51:22.185Z,45.57
2022-10-19T11:53:54.773Z,45.88
2022-10-19T11:56:39.320Z,46.43
2022-10-19T11:59:23.728Z,44.22
2022-10-19T12:01:54.269Z,44.45
2022-10-19T12:04:28.597Z,45.02
2022-10-19T12:06:59.125Z,45.04
2022-10-19T12:09:34.409Z,44.72
2022-10-19T12:12:19.617Z,44.49
2022-10-19T12:14:48.896Z,43.46
2022-10-19T12:17:23.483Z,43.89
2022-10-19T12:19:54.072Z,43.86
2022-10-19T12:22:25.100Z,43.86
2022-10-19T12:24:54.632Z,43.31
2022-10-19T12:27:32.598Z,44.08
2022-10-19T12:30:03.045Z,43.98
2022-10-19T12:32:32.162Z,43.80
2022-10-19T12:35:04.658Z,43.75
2022-10-19T12:37:44.610Z,44.48
2022-10-19T12:40:43.398Z,44.03
2022-10-19T12:43:20.086Z,44.23
2022-10-19T12:45:52.742Z,44.58
2022-10-19T12:48:20.277Z,44.54
2022-10-19T12:50:49.702Z,43.58
2022-10-19T12:53:23.460Z,44.71
2022-10-19T12:56:05.145Z,45.21
2022-10-19T12:58:34.638Z,44.49
2022-10-19T13:01:02.414Z,44.07
2022-10-19T13:03:51.060Z,44.26
2022-10-19T13:06:23.412Z,44.23
2022-10-19T13:08:52.857Z,43.90
2022-10-19T13:11:20.395Z,44.13
2022-10-19T13:14:07.035Z,43.55
2022-10-19T13:16:33.361Z,43.72
2022-10-19T13:18:59.787Z,44.40
2022-10-19T13:21:44.626Z,45.00
2022-10-19T13:24:20.165Z,45.14
2022-10-19T13:26:46.659Z,44.70
2022-10-19T13:29:26.133Z,44.68
2022-10-19T13:31:52.521Z,44.52
2022-10-19T13:34:18.864Z,44.92
2022-10-19T13:37:01.901Z,44.87
2022-10-19T13:39:28.972Z,45.16
2022-10-19T13:41:56.983Z,45.34
2022-10-19T13:44:25.378Z,45.18
2022-10-19T13:46:51.650Z,45.73
2022-10-19T13:49:36.862Z,46.03
2022-10-19T13:52:03.119Z,45.55
2022-10-19T13:54:29.435Z,46.03
2022-10-19T13:57:05.149Z,46.95
2022-10-19T13:59:37.615Z,46.19
2022-10-19T14:02:23.639Z,46.98
2022-10-19T14:05:08.839Z,47.11
2022-10-19T14:07:50.054Z,47.35
2022-10-19T14:10:17.872Z,46.04
2022-10-19T14:12:45.207Z,46.49
2022-10-19T14:15:14.011Z,47.71
2022-10-19T14:17:42.316Z,47.93
2022-10-19T14:20:24.659Z,48.52
2022-10-19T14:22:50.946Z,47.90
2022-10-19T14:25:17.341Z,47.97
2022-10-19T14:27:44.931Z,48.53
2022-10-19T14:30:22.530Z,48.61
2022-10-19T14:32:49.018Z,48.69
2022-10-19T14:35:28.239Z,49.34
2022-10-19T14:37:54.931Z,49.23
2022-10-19T14:40:26.354Z,49.51
2022-10-19T14:42:54.437Z,49.90
2022-10-19T14:45:25.421Z,49.99
2022-10-19T14:47:52.018Z,49.93
2022-10-19T14:50:19.547Z,50.08
2022-10-19T14:52:46.255Z,48.85
2022-10-19T14:55:17.972Z,49.77
2022-10-19T14:57:46.464Z,50.36
2022-10-19T15:00:22.909Z,49.10
2022-10-19T15:02:52.384Z,49.23
2022-10-19T15:05:20.277Z,49.24
2022-10-19T15:07:46.749Z,49.74
2022-10-19T15:10:19.070Z,50.86
2022-10-19T15:12:45.564Z,50.83
2022-10-19T15:15:41.131Z,51.31
2022-10-19T15:18:30.271Z,51.28
2022-10-19T15:21:12.228Z,52.13
2022-10-19T15:23:46.945Z,52.72
2022-10-19T15:26:25.385Z,52.47
2022-10-19T15:28:53.524Z,53.55
2022-10-19T15:31:26.958Z,53.69
2022-10-19T15:33:54.526Z,54.25
2022-10-19T15:36:21.648Z,55.36
2022-10-19T15:39:17.914Z,56.10
2022-10-19T15:41:51.280Z,55.82
2022-10-19T15:44:31.569Z,56.18
2022-10-19T15:47:18.936Z,56.41
2022-10-19T15:49:45.695Z,56.43
2022-10-19T15:52:14.743Z,56.21
2022-10-19T15:54:41.072Z,57.05
2022-10-19T15:57:22.283Z,57.24
2022-10-19T15:59:48.852Z,57.60
2022-10-19T16:02:15.200Z,57.21
2022-10-19T16:04:41.488Z,58.16
2022-10-19T16:07:12.485Z,58.25
2022-10-19T16:09:38.809Z,57.80
2022-10-19T16:12:05.197Z,58.71
2022-10-19T16:14:34.361Z,58.71
2022-10-19T16:17:02.905Z,58.79
2022-10-19T16:19:29.350Z,59.33
2022-10-19T16:21:55.770Z,59.63
2022-10-19T16:24:22.060Z,59.01
2022-10-19T16:26:48.390Z,60.47
2022-10-19T16:29:14.675Z,59.58
2022-10-19T16:31:41.006Z,59.71
2022-10-19T16:34:07.334Z,59.97
2022-10-19T16:36:33.654Z,60.47
2022-10-19T16:39:00.834Z,59.95
2022-10-19T16:41:27.151Z,61.07
2022-10-19T16:43:54.043Z,61.68
2022-10-19T16:46:21.532Z,60.83
2022-10-19T16:48:47.836Z,61.82
2022-10-19T16:51:33.043Z,61.44
2022-10-19T16:53:59.484Z,62.44
2022-10-19T16:56:26.690Z,63.11
2022-10-19T16:58:53.757Z,62.14
2022-10-19T17:01:22.544Z,62.82
2022-10-19T17:03:49.429Z,63.14
2022-10-19T17:06:16.950Z,62.85
2022-10-19T17:09:14.356Z,64.41
2022-10-19T17:11:31.892Z,64.86
2022-10-19T17:14:00.350Z,65.56
2022-10-19T17:16:27.482Z,64.33
2022-10-19T17:18:54.997Z,64.91
2022-10-19T17:21:25.921Z,65.00
2022-10-19T17:23:53.364Z,64.98
2022-10-19T17:26:24.395Z,64.78
2022-10-19T17:28:50.706Z,64.36
2022-10-19T17:31:17.047Z,65.58
2022-10-19T17:33:43.413Z,66.02
2022-10-19T17:36:11.323Z,65.81
2022-10-19T17:38:38.288Z,65.55
2022-10-19T17:41:14.050Z,65.78
2022-10-19T17:43:41.581Z,66.91
2022-10-19T17:46:09.388Z,65.79
2022-10-19T17:48:37.153Z,66.26
2022-10-19T17:51:05.253Z,66.39
2022-10-19T17:53:32.098Z,66.43
2022-10-19T17:55:59.357Z,66.46
2022-10-19T17:58:25.750Z,66.18
2022-10-19T18:00:55.561Z,66.63
2022-10-19T18:03:22.976Z,66.64
2022-10-19T18:05:59.944Z,66.54
2022-10-19T18:08:27.825Z,66.97
2022-10-19T18:11:04.735Z,66.45
2022-10-19T18:13:31.608Z,66.09
2022-10-19T18:16:05.104Z,66.85
2022-10-19T18:18:32.819Z,66.02
2022-10-19T18:20:59.560Z,66.57
2022-10-19T18:23:25.978Z,66.45
2022-10-19T18:25:54.347Z,66.76
2022-10-19T18:28:21.078Z,66.68
2022-10-19T18:30:47.456Z,67.13
2022-10-19T18:33:13.985Z,67.27
2022-10-19T18:35:40.709Z,67.16
2022-10-19T18:38:07.411Z,66.67
2022-10-19T18:40:34.634Z,67.31
2022-10-19T18:43:00.922Z,66.74
2022-10-19T18:45:27.314Z,67.14
2022-10-19T18:47:53.682Z,67.28
2022-10-19T18:50:22.740Z,67.69
2022-10-19T18:52:49.844Z,67.12
2022-10-19T18:55:16.176Z,67.17
2022-10-19T18:57:42.508Z,66.90
2022-10-19T19:00:09.104Z,67.25
2022-10-19T19:02:46.495Z,67.88
2022-10-19T19:05:13.651Z,68.06
2022-10-19T19:07:39.928Z,67.63
2022-10-19T19:10:06.522Z,67.57
2022-10-19T19:12:33.378Z,67.47
2022-10-19T19:15:00.033Z,68.07
2022-10-19T19:17:26.348Z,68.26
2022-10-19T19:19:52.661Z,67.90
2022-10-19T19:22:18.988Z,67.80
2022-10-19T19:24:45.402Z,68.54
2022-10-19T19:27:11.786Z,68.45
2022-10-19T19:29:38.122Z,68.98
2022-10-19T19:32:04.892Z,68.24
2022-10-19T19:34:31.273Z,69.40
2022-10-19T19:36:57.627Z,69.04
2022-10-19T19:39:23.933Z,69.11
2022-10-19T19:41:50.436Z,69.19
2022-10-19T19:44:17.408Z,69.59
2022-10-19T19:46:43.845Z,70.55
2022-10-19T19:49:10.643Z,70.60
2022-10-19T19:51:37.152Z,70.26
2022-10-19T19:54:04.097Z,70.53
2022-10-19T19:56:30.440Z,70.64
2022-10-19T19:58:57.563Z,71.46
2022-10-19T20:01:24.398Z,70.77
2022-10-19T20:03:51.034Z,70.46
2022-10-19T20:06:20.745Z,69.96
2022-10-19T20:08:50.042Z,70.56
2022-10-19T20:11:17.565Z,70.32
2022-10-19T20:13:45.349Z,70.39
2022-10-19T20:16:13.888Z,70.53
2022-10-19T20:18:41.124Z,70.74
2022-10-19T20:21:07.624Z,70.68
2022-10-19T20:23:34.013Z,70.96
2022-10-19T20:26:00.389Z,71.12
2022-10-19T20:28:27.437Z,71.17
2022-10-19T20:31:04.091Z,71.19
2022-10-19T20:33:31.537Z,71.17
2022-10-19T20:36:02.614Z,71.02
2022-10-19T20:38:28.910Z,71.34
2022-10-19T20:40:55.309Z,70.42
2022-10-19T20:43:21.720Z,70.72
2022-10-19T20:45:48.072Z,71.80
2022-10-19T20:48:14.468Z,71.93
2022-10-19T20:50:40.864Z,72.09
2022-10-19T20:53:09.827Z,71.35
2022-10-19T20:55:36.209Z,71.67
2022-10-19T20:58:02.604Z,72.09
2022-10-19T21:00:29.279Z,72.27
2022-10-19T21:02:56.055Z,72.44
2022-10-19T21:05:22.488Z,72.41
2022-10-19T21:07:48.785Z,72.28
2022-10-19T21:10:17.990Z,72.46
2022-10-19T21:12:45.114Z,71.92
2022-10-19T21:15:11.477Z,72.51
2022-10-19T21:17:37.890Z,72.38
2022-10-19T21:20:04.381Z,72.92
2022-10-19T21:22:33.325Z,72.74
2022-10-19T21:25:02.305Z,72.81
2022-10-19T21:27:28.672Z,72.87
2022-10-19T21:29:54.978Z,73.38
2022-10-19T21:32:21.757Z,73.84
2022-10-19T21:34:48.214Z,73.42
2022-10-19T21:37:14.589Z,73.53
2022-10-19T21:39:40.875Z,74.24
2022-10-19T21:42:07.192Z,73.85
2022-10-19T21:44:33.497Z,73.22
2022-10-19T21:46:59.797Z,74.55
2022-10-19T21:49:26.145Z,74.19
2022-10-19T21:51:55.948Z,74.46
2022-10-19T21:54:24.810Z,74.09
2022-10-19T21:56:51.573Z,73.94
2022-10-19T21:59:17.901Z,73.88
2022-10-19T22:01:44.621Z,74.08
2022-10-19T22:04:12.350Z,74.14
2022-10-19T22:06:39.040Z,75.06
2022-10-19T22:09:06.500Z,75.23
2022-10-19T22:11:33.507Z,74.76
2022-10-19T22:14:00.742Z,74.67
2022-10-19T22:16:27.564Z,73.93
2022-10-19T22:18:54.067Z,73.79
2022-10-19T22:21:21.746Z,73.74
2022-10-19T22:23:55.359Z,73.59
2022-10-19T22:26:24.839Z,73.87
2022-10-19T22:28:58.201Z,74.06
2022-10-19T22:31:26.742Z,74.07
2022-10-19T22:33:54.057Z,74.34
2022-10-19T22:36:21.008Z,74.13
2022-10-19T22:38:47.788Z,74.35
2022-10-19T22:41:51.826Z,73.89
2022-10-19T22:44:18.189Z,74.28
2022-10-19T22:46:44.567Z,75.04
2022-10-19T22:49:10.998Z,74.09
2022-10-19T22:51:38.120Z,75.12
2022-10-19T22:54:06.377Z,74.60
2022-10-19T22:56:32.812Z,74.50
2022-10-19T22:59:01.351Z,74.19
2022-10-19T23:01:28.901Z,74.41
2022-10-19T23:03:55.896Z,73.36
2022-10-19T23:06:23.254Z,74.45
2022-10-19T23:08:50.822Z,75.31
2022-10-19T23:11:18.585Z,74.67
2022-10-19T23:13:44.991Z,74.54
2022-10-19T23:16:12.575Z,75.09
2022-10-19T23:18:40.377Z,74.41
2022-10-19T23:21:11.767Z,73.97
2022-10-19T23:23:39.243Z,74.82
2022-10-19T23:26:08.077Z,74.80
2022-10-19T23:28:35.375Z,74.72
2022-10-19T23:31:07.836Z,74.76
2022-10-19T23:33:34.882Z,75.63
2022-10-19T23:36:03.811Z,75.61
2022-10-19T23:38:31.037Z,75.50
2022-10-19T23:40:58.480Z,75.10
2022-10-19T23:43:25.710Z,75.75
2022-10-19T23:45:52.134Z,75.85
2022-10-19T23:48:18.877Z,75.15
2022-10-19T23:50:45.975Z,75.31
2022-10-19T23:53:13.721Z,76.02
2022-10-19T23:55:41.201Z,75.72
2022-10-19T23:58:08.050Z,76.44
